KMWM/MWM METAR and TAF weather

Enter ICAO airport designator
Station Type Date Time Source
KMWM METAR 2019/07/17 18:36 UTC NOAA

KMWM 171836Z AUTO 17014G23KT 10SM CLR 24/21 A2971 RMK AO2


Station Type Date Time Source
KMWM Decoded METAR 2019/07/17 18:36 UTC NOAA

Windom, Windom Municipal Airport, MN, United States (KMWM) 43-54-48N 095-06-34W
Jul 17, 2019 - 02:36 PM EDT / 2019.07.17 1836 UTC
Wind: from the S (170 degrees) at 16 MPH (14 KT) gusting to 26 MPH (23 KT):0
Visibility: 10 mile(s):0
Sky conditions: clear
Temperature: 75 F (24 C)
Dew Point: 69 F (21 C)
Relative Humidity: 83%
Pressure (altimeter): 29.71 in. Hg (1006 hPa)
ob: KMWM 171836Z AUTO 17014G23KT 10SM CLR 24/21 A2971 RMK AO2
cycle: 18

Station Type Date Time Source
KMWM TAF UTC NOAA

Error!

Example: see airport list